Briefing drone pour Chazelles-sur-lyon

Rechercher une autre localisation

Conditions de vol :


Nous sommes le : Dimanche 29 janvier 2023
Il est 05:34 UTC (06:34 LT)

Lever de soleil : 06:41 UTC (07:41 LT)
Coucher de soleil : 17:10 UTC (18:10 LT)

Météo

L'essentiel des conditions de vol

VIGILANCE MÉTÉO FRANCE - Loire (42)
Pas de vigilances particulieres
CARTE TEMSI
CARTES DES FRONTS
METAR de LFMH
LFMH 290530Z AUTO 33004KT 9999 OVC027 00/M03 Q1026

Date d'émission: 29/01/2023
Heure d'émission: 05:30 UTC
Vent: 330° pour 4 KT (7 km/h)
Visibilité horizontale: > 10 km
Plafond :
- Couvert à 2700ft (823m)
Température: 0 °C
Point de rosée: -3 °C
Humidité: 80%
Pression (QNH): 1026 hPa
TAF de LFMH
LFMH 161901Z 1619/1712 CNL

Conditions prévues :

Heure d'émission : Bulletin éffectué le 16 à 19:00 UTC
Prévision : Valide du 16 a 19:00 UTC au 17 a 12:00 UTC
Nuages : à 0ft (0 m)
WEBCAM POUR CHAZELLES-SUR-LYON

Réglementation

Voler en sécurité

CARTES AERONAUTIQUE 1/500.000
CARTE AZBA (Reseau basse altitude)
CARTES VAC (LFMH)
SUP AIP




Chargement des AIP...
NOTAM (CHAZELLES-SUR-LYON + Terrain à proximité / FIR )




Chargement des NOTAMS...
CONTACT PREFECTURE 42
Loire (42) : [email protected]


Avertissement : Les données mises à disposition sont indicatives. Oxygène Drone ne pourra être tenu responsable de dégâts causés aux biens et aux personnes.